sensor_id;sensor_type;location;lat;lon;timestamp;P1;durP1;ratioP1;P2;durP2;ratioP2
39356;SDS011;25077;50.302;18.996;2022-10-16T00:00:21;12.10;;;8.27;;
39356;SDS011;25077;50.302;18.996;2022-10-16T00:03:23;15.03;;;8.20;;
39356;SDS011;25077;50.302;18.996;2022-10-16T00:06:26;13.60;;;8.20;;
39356;SDS011;25077;50.302;18.996;2022-10-16T00:09:30;12.30;;;7.60;;
39356;SDS011;25077;50.302;18.996;2022-10-16T00:12:32;15.63;;;7.80;;
39356;SDS011;25077;50.302;18.996;2022-10-16T00:15:34;12.17;;;7.50;;
39356;SDS011;25077;50.302;18.996;2022-10-16T00:18:37;14.30;;;8.40;;
39356;SDS011;25077;50.302;18.996;2022-10-16T00:21:39;12.43;;;7.93;;
39356;SDS011;25077;50.302;18.996;2022-10-16T00:24:43;12.27;;;7.63;;
39356;SDS011;25077;50.302;18.996;2022-10-16T00:27:45;15.13;;;7.87;;
39356;SDS011;25077;50.302;18.996;2022-10-16T00:30:47;14.57;;;8.67;;
39356;SDS011;25077;50.302;18.996;2022-10-16T00:33:49;14.63;;;8.07;;
39356;SDS011;25077;50.302;18.996;2022-10-16T00:36:52;14.10;;;7.57;;
39356;SDS011;25077;50.302;18.996;2022-10-16T00:39:55;13.80;;;7.80;;
39356;SDS011;25077;50.302;18.996;2022-10-16T00:42:57;15.37;;;8.97;;
39356;SDS011;25077;50.302;18.996;2022-10-16T00:45:59;14.53;;;8.33;;
39356;SDS011;25077;50.302;18.996;2022-10-16T00:49:03;13.37;;;8.10;;
39356;SDS011;25077;50.302;18.996;2022-10-16T00:52:08;15.80;;;8.63;;
39356;SDS011;25077;50.302;18.996;2022-10-16T00:55:12;15.53;;;8.63;;
39356;SDS011;25077;50.302;18.996;2022-10-16T00:58:15;13.43;;;8.40;;
39356;SDS011;25077;50.302;18.996;2022-10-16T01:01:17;12.40;;;8.57;;
39356;SDS011;25077;50.302;18.996;2022-10-16T01:04:19;18.47;;;8.63;;
39356;SDS011;25077;50.302;18.996;2022-10-16T01:07:26;13.13;;;8.87;;
39356;SDS011;25077;50.302;18.996;2022-10-16T01:10:39;17.50;;;8.67;;
39356;SDS011;25077;50.302;18.996;2022-10-16T01:13:48;14.80;;;8.80;;
39356;SDS011;25077;50.302;18.996;2022-10-16T01:16:57;17.40;;;9.13;;
39356;SDS011;25077;50.302;18.996;2022-10-16T01:20:06;13.90;;;9.00;;
39356;SDS011;25077;50.302;18.996;2022-10-16T01:23:15;19.27;;;9.17;;
39356;SDS011;25077;50.302;18.996;2022-10-16T01:26:37;14.50;;;9.40;;
39356;SDS011;25077;50.302;18.996;2022-10-16T01:29:55;14.30;;;8.97;;
39356;SDS011;25077;50.302;18.996;2022-10-16T01:33:04;18.67;;;8.77;;
39356;SDS011;25077;50.302;18.996;2022-10-16T01:36:10;15.67;;;9.27;;
39356;SDS011;25077;50.302;18.996;2022-10-16T01:39:15;15.27;;;9.20;;
39356;SDS011;25077;50.302;18.996;2022-10-16T01:42:24;14.80;;;9.57;;
39356;SDS011;25077;50.302;18.996;2022-10-16T01:45:33;18.13;;;9.63;;
39356;SDS011;25077;50.302;18.996;2022-10-16T01:48:37;17.10;;;9.53;;
39356;SDS011;25077;50.302;18.996;2022-10-16T01:51:41;16.53;;;8.90;;
39356;SDS011;25077;50.302;18.996;2022-10-16T01:54:47;12.70;;;8.47;;
39356;SDS011;25077;50.302;18.996;2022-10-16T01:57:52;14.93;;;9.07;;
39356;SDS011;25077;50.302;18.996;2022-10-16T02:00:57;10.03;;;7.50;;
39356;SDS011;25077;50.302;18.996;2022-10-16T02:04:01;19.17;;;8.13;;
39356;SDS011;25077;50.302;18.996;2022-10-16T02:07:06;14.93;;;8.27;;
39356;SDS011;25077;50.302;18.996;2022-10-16T02:10:08;12.20;;;8.00;;
39356;SDS011;25077;50.302;18.996;2022-10-16T02:13:12;13.53;;;7.37;;
39356;SDS011;25077;50.302;18.996;2022-10-16T02:16:19;12.37;;;7.60;;
39356;SDS011;25077;50.302;18.996;2022-10-16T02:19:22;13.03;;;8.00;;
39356;SDS011;25077;50.302;18.996;2022-10-16T02:22:25;15.97;;;7.80;;
39356;SDS011;25077;50.302;18.996;2022-10-16T02:25:30;15.13;;;8.53;;
39356;SDS011;25077;50.302;18.996;2022-10-16T02:28:37;16.07;;;7.80;;
39356;SDS011;25077;50.302;18.996;2022-10-16T02:31:46;15.60;;;7.97;;
39356;SDS011;25077;50.302;18.996;2022-10-16T02:34:51;12.30;;;7.57;;
39356;SDS011;25077;50.302;18.996;2022-10-16T02:37:54;15.07;;;7.50;;
39356;SDS011;25077;50.302;18.996;2022-10-16T02:40:57;11.40;;;7.27;;
39356;SDS011;25077;50.302;18.996;2022-10-16T02:44:00;14.67;;;7.97;;
39356;SDS011;25077;50.302;18.996;2022-10-16T02:47:03;10.97;;;6.63;;
39356;SDS011;25077;50.302;18.996;2022-10-16T02:50:06;13.13;;;6.87;;
39356;SDS011;25077;50.302;18.996;2022-10-16T02:53:08;10.57;;;6.77;;
39356;SDS011;25077;50.302;18.996;2022-10-16T02:56:10;13.77;;;7.70;;
39356;SDS011;25077;50.302;18.996;2022-10-16T02:59:12;12.17;;;7.17;;
39356;SDS011;25077;50.302;18.996;2022-10-16T03:02:16;12.23;;;6.87;;
39356;SDS011;25077;50.302;18.996;2022-10-16T03:05:18;11.73;;;6.90;;
39356;SDS011;25077;50.302;18.996;2022-10-16T03:08:20;13.57;;;6.77;;
39356;SDS011;25077;50.302;18.996;2022-10-16T03:11:24;10.23;;;6.80;;
39356;SDS011;25077;50.302;18.996;2022-10-16T03:14:26;16.67;;;7.13;;
39356;SDS011;25077;50.302;18.996;2022-10-16T03:17:31;11.40;;;7.47;;
39356;SDS011;25077;50.302;18.996;2022-10-16T03:20:33;10.37;;;6.90;;
39356;SDS011;25077;50.302;18.996;2022-10-16T03:23:35;9.60;;;7.17;;
39356;SDS011;25077;50.302;18.996;2022-10-16T03:26:37;12.77;;;7.93;;
39356;SDS011;25077;50.302;18.996;2022-10-16T03:29:39;11.07;;;7.70;;
39356;SDS011;25077;50.302;18.996;2022-10-16T03:32:43;13.90;;;7.53;;
39356;SDS011;25077;50.302;18.996;2022-10-16T03:35:50;12.83;;;7.40;;
39356;SDS011;25077;50.302;18.996;2022-10-16T03:38:52;9.60;;;7.20;;
39356;SDS011;25077;50.302;18.996;2022-10-16T03:41:55;12.50;;;7.37;;
39356;SDS011;25077;50.302;18.996;2022-10-16T03:44:57;14.37;;;7.83;;
39356;SDS011;25077;50.302;18.996;2022-10-16T03:48:01;10.67;;;7.40;;
39356;SDS011;25077;50.302;18.996;2022-10-16T03:51:03;12.87;;;7.37;;
39356;SDS011;25077;50.302;18.996;2022-10-16T03:54:06;14.00;;;7.83;;
39356;SDS011;25077;50.302;18.996;2022-10-16T03:57:08;14.13;;;8.33;;
39356;SDS011;25077;50.302;18.996;2022-10-16T04:00:11;19.93;;;8.07;;
39356;SDS011;25077;50.302;18.996;2022-10-16T04:03:15;12.37;;;7.70;;
39356;SDS011;25077;50.302;18.996;2022-10-16T04:06:17;15.40;;;7.67;;
39356;SDS011;25077;50.302;18.996;2022-10-16T04:09:19;13.03;;;8.53;;
39356;SDS011;25077;50.302;18.996;2022-10-16T04:12:21;11.00;;;7.73;;
39356;SDS011;25077;50.302;18.996;2022-10-16T04:15:24;14.13;;;7.93;;
39356;SDS011;25077;50.302;18.996;2022-10-16T04:18:28;12.63;;;9.10;;
39356;SDS011;25077;50.302;18.996;2022-10-16T04:21:30;13.00;;;8.93;;
39356;SDS011;25077;50.302;18.996;2022-10-16T04:24:32;16.27;;;9.10;;
39356;SDS011;25077;50.302;18.996;2022-10-16T04:27:34;17.30;;;9.07;;
39356;SDS011;25077;50.302;18.996;2022-10-16T04:30:37;13.67;;;8.53;;
39356;SDS011;25077;50.302;18.996;2022-10-16T04:33:43;13.17;;;8.83;;
39356;SDS011;25077;50.302;18.996;2022-10-16T04:36:46;17.73;;;9.10;;
39356;SDS011;25077;50.302;18.996;2022-10-16T04:39:48;11.10;;;7.70;;
39356;SDS011;25077;50.302;18.996;2022-10-16T04:42:50;16.20;;;8.73;;
39356;SDS011;25077;50.302;18.996;2022-10-16T04:45:53;12.73;;;8.93;;
39356;SDS011;25077;50.302;18.996;2022-10-16T04:48:56;12.50;;;8.47;;
39356;SDS011;25077;50.302;18.996;2022-10-16T04:51:58;17.10;;;9.10;;
39356;SDS011;25077;50.302;18.996;2022-10-16T04:55:00;14.37;;;8.17;;
39356;SDS011;25077;50.302;18.996;2022-10-16T04:58:03;13.00;;;8.57;;
39356;SDS011;25077;50.302;18.996;2022-10-16T05:01:05;11.37;;;8.63;;
39356;SDS011;25077;50.302;18.996;2022-10-16T05:04:08;12.77;;;9.23;;
39356;SDS011;25077;50.302;18.996;2022-10-16T05:07:10;14.07;;;8.83;;
39356;SDS011;25077;50.302;18.996;2022-10-16T05:10:13;16.60;;;9.07;;
39356;SDS011;25077;50.302;18.996;2022-10-16T05:13:15;15.13;;;8.67;;
39356;SDS011;25077;50.302;18.996;2022-10-16T05:16:17;16.47;;;8.80;;
39356;SDS011;25077;50.302;18.996;2022-10-16T05:19:21;13.13;;;8.33;;
39356;SDS011;25077;50.302;18.996;2022-10-16T05:22:22;21.27;;;9.10;;
39356;SDS011;25077;50.302;18.996;2022-10-16T05:25:25;11.63;;;8.10;;
39356;SDS011;25077;50.302;18.996;2022-10-16T05:28:27;12.37;;;8.30;;
39356;SDS011;25077;50.302;18.996;2022-10-16T05:31:30;12.33;;;7.87;;
39356;SDS011;25077;50.302;18.996;2022-10-16T05:34:34;15.40;;;8.60;;
39356;SDS011;25077;50.302;18.996;2022-10-16T05:37:36;12.97;;;7.93;;
39356;SDS011;25077;50.302;18.996;2022-10-16T05:40:38;15.60;;;8.13;;
39356;SDS011;25077;50.302;18.996;2022-10-16T05:43:40;12.30;;;8.17;;
39356;SDS011;25077;50.302;18.996;2022-10-16T05:46:42;15.47;;;8.00;;
39356;SDS011;25077;50.302;18.996;2022-10-16T05:49:45;11.83;;;7.47;;
39356;SDS011;25077;50.302;18.996;2022-10-16T05:52:48;15.60;;;7.70;;
39356;SDS011;25077;50.302;18.996;2022-10-16T05:55:51;14.13;;;8.10;;
39356;SDS011;25077;50.302;18.996;2022-10-16T05:58:54;13.23;;;7.80;;
39356;SDS011;25077;50.302;18.996;2022-10-16T06:01:57;12.33;;;7.67;;
39356;SDS011;25077;50.302;18.996;2022-10-16T06:05:00;12.70;;;7.83;;
39356;SDS011;25077;50.302;18.996;2022-10-16T06:08:02;12.50;;;7.83;;
39356;SDS011;25077;50.302;18.996;2022-10-16T06:11:05;12.30;;;7.87;;
39356;SDS011;25077;50.302;18.996;2022-10-16T06:14:08;11.80;;;7.80;;
39356;SDS011;25077;50.302;18.996;2022-10-16T06:17:10;11.33;;;7.47;;
39356;SDS011;25077;50.302;18.996;2022-10-16T06:20:13;11.57;;;7.30;;
39356;SDS011;25077;50.302;18.996;2022-10-16T06:23:16;14.77;;;7.53;;
39356;SDS011;25077;50.302;18.996;2022-10-16T06:26:18;11.23;;;7.47;;
39356;SDS011;25077;50.302;18.996;2022-10-16T06:29:21;11.07;;;7.57;;
39356;SDS011;25077;50.302;18.996;2022-10-16T06:32:23;14.13;;;7.50;;
39356;SDS011;25077;50.302;18.996;2022-10-16T06:35:27;14.60;;;7.93;;
39356;SDS011;25077;50.302;18.996;2022-10-16T06:38:32;15.10;;;7.73;;
39356;SDS011;25077;50.302;18.996;2022-10-16T06:41:34;13.03;;;7.63;;
39356;SDS011;25077;50.302;18.996;2022-10-16T06:44:49;10.90;;;6.90;;
39356;SDS011;25077;50.302;18.996;2022-10-16T06:47:51;9.47;;;6.57;;
39356;SDS011;25077;50.302;18.996;2022-10-16T06:50:57;15.97;;;7.07;;
39356;SDS011;25077;50.302;18.996;2022-10-16T06:54:00;13.47;;;7.07;;
39356;SDS011;25077;50.302;18.996;2022-10-16T06:57:05;11.47;;;7.63;;
39356;SDS011;25077;50.302;18.996;2022-10-16T07:00:08;10.97;;;7.20;;
39356;SDS011;25077;50.302;18.996;2022-10-16T07:03:10;9.00;;;6.97;;
39356;SDS011;25077;50.302;18.996;2022-10-16T07:06:15;12.23;;;7.13;;
39356;SDS011;25077;50.302;18.996;2022-10-16T07:09:17;12.27;;;6.73;;
39356;SDS011;25077;50.302;18.996;2022-10-16T07:12:19;14.80;;;7.43;;
39356;SDS011;25077;50.302;18.996;2022-10-16T07:15:21;17.53;;;6.80;;
39356;SDS011;25077;50.302;18.996;2022-10-16T07:18:24;14.20;;;6.87;;
39356;SDS011;25077;50.302;18.996;2022-10-16T07:21:31;11.00;;;6.43;;
39356;SDS011;25077;50.302;18.996;2022-10-16T07:24:35;13.23;;;8.07;;
39356;SDS011;25077;50.302;18.996;2022-10-16T07:27:37;13.53;;;6.70;;
39356;SDS011;25077;50.302;18.996;2022-10-16T07:30:39;12.70;;;7.53;;
39356;SDS011;25077;50.302;18.996;2022-10-16T07:33:42;11.60;;;7.50;;
39356;SDS011;25077;50.302;18.996;2022-10-16T07:36:48;12.03;;;7.87;;
39356;SDS011;25077;50.302;18.996;2022-10-16T07:39:51;12.40;;;7.20;;
39356;SDS011;25077;50.302;18.996;2022-10-16T07:42:53;16.10;;;7.53;;
39356;SDS011;25077;50.302;18.996;2022-10-16T07:45:55;9.27;;;6.50;;
39356;SDS011;25077;50.302;18.996;2022-10-16T07:48:57;13.50;;;6.53;;
39356;SDS011;25077;50.302;18.996;2022-10-16T07:52:01;13.20;;;6.80;;
39356;SDS011;25077;50.302;18.996;2022-10-16T07:55:03;16.37;;;7.10;;
39356;SDS011;25077;50.302;18.996;2022-10-16T07:58:05;10.77;;;6.43;;
39356;SDS011;25077;50.302;18.996;2022-10-16T08:01:08;10.87;;;6.73;;
39356;SDS011;25077;50.302;18.996;2022-10-16T08:04:12;9.40;;;6.43;;
39356;SDS011;25077;50.302;18.996;2022-10-16T08:07:15;14.90;;;6.47;;
39356;SDS011;25077;50.302;18.996;2022-10-16T08:10:18;11.53;;;6.50;;
39356;SDS011;25077;50.302;18.996;2022-10-16T08:13:21;10.10;;;6.70;;
39356;SDS011;25077;50.302;18.996;2022-10-16T08:16:24;11.90;;;7.00;;
39356;SDS011;25077;50.302;18.996;2022-10-16T08:19:26;8.63;;;6.17;;
39356;SDS011;25077;50.302;18.996;2022-10-16T08:22:29;9.93;;;6.17;;
39356;SDS011;25077;50.302;18.996;2022-10-16T08:25:32;9.53;;;6.27;;
39356;SDS011;25077;50.302;18.996;2022-10-16T08:28:37;9.87;;;5.50;;
39356;SDS011;25077;50.302;18.996;2022-10-16T08:31:39;8.30;;;5.17;;
39356;SDS011;25077;50.302;18.996;2022-10-16T08:34:42;9.63;;;5.20;;
39356;SDS011;25077;50.302;18.996;2022-10-16T08:37:45;10.30;;;6.27;;
39356;SDS011;25077;50.302;18.996;2022-10-16T08:40:47;8.47;;;5.00;;
39356;SDS011;25077;50.302;18.996;2022-10-16T08:43:55;11.13;;;5.67;;
39356;SDS011;25077;50.302;18.996;2022-10-16T08:47:09;14.03;;;5.73;;
39356;SDS011;25077;50.302;18.996;2022-10-16T08:50:19;7.90;;;5.43;;
39356;SDS011;25077;50.302;18.996;2022-10-16T08:53:29;7.97;;;5.37;;
39356;SDS011;25077;50.302;18.996;2022-10-16T08:56:35;10.83;;;5.33;;
39356;SDS011;25077;50.302;18.996;2022-10-16T08:59:37;7.93;;;5.50;;
39356;SDS011;25077;50.302;18.996;2022-10-16T09:02:40;9.67;;;5.57;;
39356;SDS011;25077;50.302;18.996;2022-10-16T09:05:57;7.53;;;5.63;;
39356;SDS011;25077;50.302;18.996;2022-10-16T09:09:14;11.00;;;5.70;;
39356;SDS011;25077;50.302;18.996;2022-10-16T09:12:27;8.93;;;5.23;;
39356;SDS011;25077;50.302;18.996;2022-10-16T09:15:47;11.37;;;5.60;;
39356;SDS011;25077;50.302;18.996;2022-10-16T09:18:58;9.13;;;5.43;;
39356;SDS011;25077;50.302;18.996;2022-10-16T09:22:09;8.80;;;5.63;;
39356;SDS011;25077;50.302;18.996;2022-10-16T09:25:18;8.47;;;5.67;;
39356;SDS011;25077;50.302;18.996;2022-10-16T09:28:23;8.27;;;5.60;;
39356;SDS011;25077;50.302;18.996;2022-10-16T09:31:25;11.40;;;5.40;;
39356;SDS011;25077;50.302;18.996;2022-10-16T09:34:29;15.27;;;6.07;;
39356;SDS011;25077;50.302;18.996;2022-10-16T09:37:34;9.20;;;5.70;;
39356;SDS011;25077;50.302;18.996;2022-10-16T09:40:38;10.30;;;5.30;;
39356;SDS011;25077;50.302;18.996;2022-10-16T09:43:46;13.50;;;6.57;;
39356;SDS011;25077;50.302;18.996;2022-10-16T09:47:00;9.53;;;5.73;;
39356;SDS011;25077;50.302;18.996;2022-10-16T09:50:03;13.43;;;5.63;;
39356;SDS011;25077;50.302;18.996;2022-10-16T09:53:20;11.03;;;5.60;;
39356;SDS011;25077;50.302;18.996;2022-10-16T09:56:25;8.20;;;5.77;;
39356;SDS011;25077;50.302;18.996;2022-10-16T09:59:28;11.53;;;5.27;;
39356;SDS011;25077;50.302;18.996;2022-10-16T10:02:34;7.60;;;5.20;;
39356;SDS011;25077;50.302;18.996;2022-10-16T10:05:38;7.27;;;5.67;;
39356;SDS011;25077;50.302;18.996;2022-10-16T10:08:51;9.97;;;5.60;;
39356;SDS011;25077;50.302;18.996;2022-10-16T10:11:59;13.53;;;6.00;;
39356;SDS011;25077;50.302;18.996;2022-10-16T10:15:06;7.30;;;5.47;;
39356;SDS011;25077;50.302;18.996;2022-10-16T10:18:15;8.37;;;5.23;;
39356;SDS011;25077;50.302;18.996;2022-10-16T10:21:19;8.47;;;4.57;;
39356;SDS011;25077;50.302;18.996;2022-10-16T10:24:22;8.20;;;4.87;;
39356;SDS011;25077;50.302;18.996;2022-10-16T10:27:27;8.63;;;4.70;;
39356;SDS011;25077;50.302;18.996;2022-10-16T10:30:38;10.87;;;5.27;;
39356;SDS011;25077;50.302;18.996;2022-10-16T10:33:47;8.00;;;5.37;;
39356;SDS011;25077;50.302;18.996;2022-10-16T10:36:55;5.73;;;4.80;;
39356;SDS011;25077;50.302;18.996;2022-10-16T10:40:07;8.40;;;5.10;;
39356;SDS011;25077;50.302;18.996;2022-10-16T10:43:25;7.40;;;4.80;;
39356;SDS011;25077;50.302;18.996;2022-10-16T10:46:41;7.87;;;4.70;;
39356;SDS011;25077;50.302;18.996;2022-10-16T10:49:50;6.33;;;4.53;;
39356;SDS011;25077;50.302;18.996;2022-10-16T10:53:04;8.13;;;5.13;;
39356;SDS011;25077;50.302;18.996;2022-10-16T10:56:15;6.23;;;4.70;;
39356;SDS011;25077;50.302;18.996;2022-10-16T10:59:37;7.53;;;4.67;;
39356;SDS011;25077;50.302;18.996;2022-10-16T11:02:59;8.27;;;5.00;;
39356;SDS011;25077;50.302;18.996;2022-10-16T11:06:14;8.70;;;4.67;;
39356;SDS011;25077;50.302;18.996;2022-10-16T11:09:19;8.97;;;4.70;;
39356;SDS011;25077;50.302;18.996;2022-10-16T11:12:25;9.60;;;4.90;;
39356;SDS011;25077;50.302;18.996;2022-10-16T11:15:33;8.57;;;4.77;;
39356;SDS011;25077;50.302;18.996;2022-10-16T11:18:42;9.03;;;5.30;;
39356;SDS011;25077;50.302;18.996;2022-10-16T11:21:51;6.80;;;4.50;;
39356;SDS011;25077;50.302;18.996;2022-10-16T11:25:02;6.17;;;4.53;;
39356;SDS011;25077;50.302;18.996;2022-10-16T11:28:14;7.27;;;4.87;;
39356;SDS011;25077;50.302;18.996;2022-10-16T11:31:24;8.47;;;4.90;;
39356;SDS011;25077;50.302;18.996;2022-10-16T11:34:34;7.80;;;5.17;;
39356;SDS011;25077;50.302;18.996;2022-10-16T11:37:42;6.75;;;5.05;;
39356;SDS011;25077;50.302;18.996;2022-10-16T11:40:47;5.90;;;4.38;;
39356;SDS011;25077;50.302;18.996;2022-10-16T11:47:25;5.40;;;4.65;;
39356;SDS011;25077;50.302;18.996;2022-10-16T11:50:34;7.35;;;4.40;;
39356;SDS011;25077;50.302;18.996;2022-10-16T11:53:43;6.78;;;4.35;;
39356;SDS011;25077;50.302;18.996;2022-10-16T11:56:51;7.50;;;4.43;;
39356;SDS011;25077;50.302;18.996;2022-10-16T12:00:00;5.60;;;4.05;;
39356;SDS011;25077;50.302;18.996;2022-10-16T12:03:17;8.18;;;4.30;;
39356;SDS011;25077;50.302;18.996;2022-10-16T12:06:23;10.82;;;4.80;;
39356;SDS011;25077;50.302;18.996;2022-10-16T12:09:32;6.65;;;4.30;;
39356;SDS011;25077;50.302;18.996;2022-10-16T12:12:37;5.00;;;4.50;;
39356;SDS011;25077;50.302;18.996;2022-10-16T12:15:41;7.60;;;4.78;;
39356;SDS011;25077;50.302;18.996;2022-10-16T12:18:45;7.93;;;4.70;;
39356;SDS011;25077;50.302;18.996;2022-10-16T12:21:49;11.27;;;5.20;;
39356;SDS011;25077;50.302;18.996;2022-10-16T12:24:52;5.22;;;4.72;;
39356;SDS011;25077;50.302;18.996;2022-10-16T12:27:56;6.13;;;4.63;;
39356;SDS011;25077;50.302;18.996;2022-10-16T12:31:01;8.48;;;5.28;;
39356;SDS011;25077;50.302;18.996;2022-10-16T12:34:14;7.85;;;5.25;;
39356;SDS011;25077;50.302;18.996;2022-10-16T12:37:25;11.20;;;6.57;;
39356;SDS011;25077;50.302;18.996;2022-10-16T12:40:30;9.10;;;6.13;;
39356;SDS011;25077;50.302;18.996;2022-10-16T12:43:36;8.93;;;6.43;;
39356;SDS011;25077;50.302;18.996;2022-10-16T12:46:40;11.43;;;6.30;;
39356;SDS011;25077;50.302;18.996;2022-10-16T12:49:47;14.73;;;7.18;;
39356;SDS011;25077;50.302;18.996;2022-10-16T12:52:50;10.23;;;6.65;;
39356;SDS011;25077;50.302;18.996;2022-10-16T12:55:56;13.23;;;7.00;;
39356;SDS011;25077;50.302;18.996;2022-10-16T12:59:08;11.55;;;6.30;;
39356;SDS011;25077;50.302;18.996;2022-10-16T13:02:28;12.65;;;7.35;;
39356;SDS011;25077;50.302;18.996;2022-10-16T13:05:59;10.40;;;6.97;;
39356;SDS011;25077;50.302;18.996;2022-10-16T13:09:18;9.37;;;6.30;;
39356;SDS011;25077;50.302;18.996;2022-10-16T13:12:40;9.07;;;6.13;;
39356;SDS011;25077;50.302;18.996;2022-10-16T13:16:08;9.83;;;6.23;;
39356;SDS011;25077;50.302;18.996;2022-10-16T13:19:20;10.47;;;6.23;;
39356;SDS011;25077;50.302;18.996;2022-10-16T13:22:31;8.90;;;6.53;;
39356;SDS011;25077;50.302;18.996;2022-10-16T13:25:43;13.18;;;6.20;;
39356;SDS011;25077;50.302;18.996;2022-10-16T13:28:58;12.02;;;5.65;;
39356;SDS011;25077;50.302;18.996;2022-10-16T13:32:06;8.48;;;5.72;;
39356;SDS011;25077;50.302;18.996;2022-10-16T13:35:18;12.10;;;6.05;;
39356;SDS011;25077;50.302;18.996;2022-10-16T13:38:27;9.35;;;6.07;;
39356;SDS011;25077;50.302;18.996;2022-10-16T13:41:30;9.85;;;6.15;;
39356;SDS011;25077;50.302;18.996;2022-10-16T13:44:35;9.95;;;6.38;;
39356;SDS011;25077;50.302;18.996;2022-10-16T13:47:41;12.18;;;6.18;;
39356;SDS011;25077;50.302;18.996;2022-10-16T13:50:43;13.63;;;6.13;;
39356;SDS011;25077;50.302;18.996;2022-10-16T13:53:46;7.95;;;5.93;;
39356;SDS011;25077;50.302;18.996;2022-10-16T13:56:49;6.32;;;4.95;;
39356;SDS011;25077;50.302;18.996;2022-10-16T13:59:53;6.53;;;5.13;;
39356;SDS011;25077;50.302;18.996;2022-10-16T14:02:55;9.90;;;5.60;;
39356;SDS011;25077;50.302;18.996;2022-10-16T14:06:02;5.65;;;4.57;;
39356;SDS011;25077;50.302;18.996;2022-10-16T14:09:14;7.45;;;5.20;;
39356;SDS011;25077;50.302;18.996;2022-10-16T14:12:23;6.63;;;5.20;;
39356;SDS011;25077;50.302;18.996;2022-10-16T14:15:25;8.25;;;4.53;;
39356;SDS011;25077;50.302;18.996;2022-10-16T14:18:28;12.73;;;5.22;;
39356;SDS011;25077;50.302;18.996;2022-10-16T14:21:30;6.38;;;4.80;;
39356;SDS011;25077;50.302;18.996;2022-10-16T14:24:34;5.53;;;4.60;;
39356;SDS011;25077;50.302;18.996;2022-10-16T14:27:36;7.93;;;5.07;;
39356;SDS011;25077;50.302;18.996;2022-10-16T14:30:48;6.53;;;5.47;;
39356;SDS011;25077;50.302;18.996;2022-10-16T14:33:51;6.32;;;5.55;;
39356;SDS011;25077;50.302;18.996;2022-10-16T14:36:53;10.45;;;5.80;;
39356;SDS011;25077;50.302;18.996;2022-10-16T14:39:57;7.10;;;5.60;;
39356;SDS011;25077;50.302;18.996;2022-10-16T14:43:00;7.70;;;5.80;;
39356;SDS011;25077;50.302;18.996;2022-10-16T14:46:03;8.25;;;6.15;;
39356;SDS011;25077;50.302;18.996;2022-10-16T14:49:15;9.35;;;5.93;;
39356;SDS011;25077;50.302;18.996;2022-10-16T14:52:19;8.80;;;6.05;;
39356;SDS011;25077;50.302;18.996;2022-10-16T14:55:22;10.07;;;5.53;;
39356;SDS011;25077;50.302;18.996;2022-10-16T14:58:24;11.43;;;5.55;;
39356;SDS011;25077;50.302;18.996;2022-10-16T15:01:26;7.88;;;5.40;;
39356;SDS011;25077;50.302;18.996;2022-10-16T15:04:28;7.95;;;6.13;;
39356;SDS011;25077;50.302;18.996;2022-10-16T15:07:30;9.52;;;5.68;;
39356;SDS011;25077;50.302;18.996;2022-10-16T15:10:38;7.88;;;5.63;;
39356;SDS011;25077;50.302;18.996;2022-10-16T15:13:42;14.02;;;6.18;;
39356;SDS011;25077;50.302;18.996;2022-10-16T15:16:44;9.93;;;6.32;;
39356;SDS011;25077;50.302;18.996;2022-10-16T15:19:46;8.82;;;6.15;;
39356;SDS011;25077;50.302;18.996;2022-10-16T15:22:48;7.70;;;5.73;;
39356;SDS011;25077;50.302;18.996;2022-10-16T15:25:52;10.70;;;6.40;;
39356;SDS011;25077;50.302;18.996;2022-10-16T15:28:55;11.50;;;6.57;;
39356;SDS011;25077;50.302;18.996;2022-10-16T15:31:57;8.30;;;6.37;;
39356;SDS011;25077;50.302;18.996;2022-10-16T15:34:59;8.13;;;6.17;;
39356;SDS011;25077;50.302;18.996;2022-10-16T15:38:01;13.67;;;6.33;;
39356;SDS011;25077;50.302;18.996;2022-10-16T15:41:05;9.03;;;6.23;;
39356;SDS011;25077;50.302;18.996;2022-10-16T15:44:07;8.87;;;6.43;;
39356;SDS011;25077;50.302;18.996;2022-10-16T15:47:09;11.60;;;5.83;;
39356;SDS011;25077;50.302;18.996;2022-10-16T15:50:11;9.20;;;6.40;;
39356;SDS011;25077;50.302;18.996;2022-10-16T15:53:13;9.77;;;7.07;;
39356;SDS011;25077;50.302;18.996;2022-10-16T15:56:17;9.37;;;7.27;;
39356;SDS011;25077;50.302;18.996;2022-10-16T15:59:19;10.13;;;7.07;;
39356;SDS011;25077;50.302;18.996;2022-10-16T16:02:21;13.33;;;8.07;;
39356;SDS011;25077;50.302;18.996;2022-10-16T16:05:23;13.37;;;7.20;;
39356;SDS011;25077;50.302;18.996;2022-10-16T16:08:25;10.87;;;7.50;;
39356;SDS011;25077;50.302;18.996;2022-10-16T16:11:28;14.77;;;8.13;;
39356;SDS011;25077;50.302;18.996;2022-10-16T16:14:32;13.13;;;8.47;;
39356;SDS011;25077;50.302;18.996;2022-10-16T16:17:35;12.73;;;7.83;;
39356;SDS011;25077;50.302;18.996;2022-10-16T16:20:38;13.00;;;8.07;;
39356;SDS011;25077;50.302;18.996;2022-10-16T16:23:40;29.23;;;8.07;;
39356;SDS011;25077;50.302;18.996;2022-10-16T16:26:43;12.67;;;7.93;;
39356;SDS011;25077;50.302;18.996;2022-10-16T16:29:46;10.43;;;7.63;;
39356;SDS011;25077;50.302;18.996;2022-10-16T16:32:48;10.87;;;7.43;;
39356;SDS011;25077;50.302;18.996;2022-10-16T16:35:50;10.07;;;7.80;;
39356;SDS011;25077;50.302;18.996;2022-10-16T16:38:52;11.80;;;8.00;;
39356;SDS011;25077;50.302;18.996;2022-10-16T16:41:56;13.03;;;8.43;;
39356;SDS011;25077;50.302;18.996;2022-10-16T16:44:58;14.53;;;8.30;;
39356;SDS011;25077;50.302;18.996;2022-10-16T16:48:00;16.13;;;8.07;;
39356;SDS011;25077;50.302;18.996;2022-10-16T16:51:03;12.27;;;7.97;;
39356;SDS011;25077;50.302;18.996;2022-10-16T16:54:06;18.03;;;8.70;;
39356;SDS011;25077;50.302;18.996;2022-10-16T16:57:10;16.53;;;8.27;;
39356;SDS011;25077;50.302;18.996;2022-10-16T17:00:13;11.87;;;7.83;;
39356;SDS011;25077;50.302;18.996;2022-10-16T17:03:15;15.27;;;8.37;;
39356;SDS011;25077;50.302;18.996;2022-10-16T17:06:17;15.53;;;8.47;;
39356;SDS011;25077;50.302;18.996;2022-10-16T17:09:20;13.17;;;8.50;;
39356;SDS011;25077;50.302;18.996;2022-10-16T17:12:24;14.70;;;8.07;;
39356;SDS011;25077;50.302;18.996;2022-10-16T17:15:26;15.37;;;8.17;;
39356;SDS011;25077;50.302;18.996;2022-10-16T17:18:28;16.50;;;8.20;;
39356;SDS011;25077;50.302;18.996;2022-10-16T17:21:30;12.90;;;8.23;;
39356;SDS011;25077;50.302;18.996;2022-10-16T17:24:32;13.77;;;8.63;;
39356;SDS011;25077;50.302;18.996;2022-10-16T17:27:36;11.93;;;8.23;;
39356;SDS011;25077;50.302;18.996;2022-10-16T17:30:38;10.87;;;7.80;;
39356;SDS011;25077;50.302;18.996;2022-10-16T17:33:40;14.60;;;8.43;;
39356;SDS011;25077;50.302;18.996;2022-10-16T17:36:43;14.40;;;8.37;;
39356;SDS011;25077;50.302;18.996;2022-10-16T17:39:49;15.17;;;8.33;;
39356;SDS011;25077;50.302;18.996;2022-10-16T17:42:53;13.67;;;9.20;;
39356;SDS011;25077;50.302;18.996;2022-10-16T17:45:55;18.27;;;8.73;;
39356;SDS011;25077;50.302;18.996;2022-10-16T17:48:57;11.70;;;8.07;;
39356;SDS011;25077;50.302;18.996;2022-10-16T17:52:00;13.30;;;8.93;;
39356;SDS011;25077;50.302;18.996;2022-10-16T17:55:03;13.67;;;9.63;;
39356;SDS011;25077;50.302;18.996;2022-10-16T17:58:07;14.10;;;9.27;;
39356;SDS011;25077;50.302;18.996;2022-10-16T18:01:12;15.27;;;10.17;;
39356;SDS011;25077;50.302;18.996;2022-10-16T18:04:15;14.70;;;8.90;;
39356;SDS011;25077;50.302;18.996;2022-10-16T18:07:18;16.90;;;10.27;;
39356;SDS011;25077;50.302;18.996;2022-10-16T18:10:20;17.43;;;9.77;;